Time;durP1;ratioP1;P1;durP2;ratioP2;P2;SDS_P1;SDS_P2;PMS_P1;PMS_P2;Temp;Humidity;BMP_temperature;BMP_pressure;BME280_temperature;BME280_humidity;BME280_pressure;Samples;Min_cycle;Max_cycle;Signal;HPM_P1;HPM_P2
2022/04/24 00:01:30;;;;;;;;;;;;;;;;;;2216225;58;1872;-70
2022/04/24 00:04:03;;;;;;;;;;;;;;;;;;2219384;66;1172;-70
2022/04/24 00:06:39;;;;;;;;;;;;;;;;;;2218858;59;1225;-70
2022/04/24 00:09:12;;;;;;;;;;;;;;;;;;2216138;59;1237;-71
2022/04/24 00:11:45;;;;;;;;;;;;;;;;;;2219330;58;1300;-70
2022/04/24 00:14:21;;;;;;;;;;;;;;;;;;2219247;58;1592;-70
2022/04/24 00:16:54;;;;;;;;;;;;;;;;;;2219837;66;1925;-70
2022/04/24 00:19:27;;;;;;;;;;;;;;;;;;2219459;66;1257;-70
2022/04/24 00:22:00;;;;;;;;;;;;;;;;;;2218995;58;1774;-71
2022/04/24 00:24:33;;;;;;;;;;;;;;;;;;2219036;58;1144;-70
2022/04/24 00:27:07;;;;;;;;;;;;;;;;;;2219730;66;1112;-70
2022/04/24 00:29:43;;;;;;;;;;;;;;;;;;2219201;58;1408;-70
2022/04/24 00:32:16;;;;;;;;;;;;;;;;;;2219562;59;1163;-70
2022/04/24 00:34:49;;;;;;;;;;;;;;;;;;2219244;66;1927;-70
2022/04/24 00:37:22;;;;;;;;;;;;;;;;;;2218940;58;1755;-71
2022/04/24 00:39:55;;;;;;;;;;;;;;;;;;2219547;66;1242;-70
2022/04/24 00:42:29;;;;;;;;;;;;;;;;;;2219026;58;1854;-70
2022/04/24 00:45:05;;;;;;;;;;;;;;;;;;2219716;66;1163;-70
2022/04/24 00:47:41;;;;;;;;;;;;;;;;;;2218941;58;1289;-71
2022/04/24 00:50:15;;;;;;;;;;;;;;;;;;2219683;66;1247;-70
2022/04/24 00:52:48;;;;;;;;;;;;;;;;;;2219565;66;1215;-71
2022/04/24 00:55:25;;;;;;;;;;;;;;;;;;2219590;66;1931;-72
2022/04/24 00:57:58;;;;;;;;;;;;;;;;;;2219729;66;1231;-70
2022/04/24 01:03:10;;;;;;;;;;;;;;;;;;2217314;58;1943;-69
2022/04/24 01:05:43;;;;;;;;;;;;;;;;;;2221799;58;1281;-70
2022/04/24 01:08:16;;;;;;;;;;;;;;;;;;2222014;66;1077;-70
2022/04/24 01:10:50;;;;;;;;;;;;;;;;;;2220639;58;1430;-70
2022/04/24 01:13:23;;;;;;;;;;;;;;;;;;2218535;63;1435;-70
2022/04/24 01:15:59;;;;;;;;;;;;;;;;;;2220703;66;1929;-69
2022/04/24 01:18:35;;;;;;;;;;;;;;;;;;2219839;59;1178;-70
2022/04/24 01:21:11;;;;;;;;;;;;;;;;;;2219129;58;1794;-70
2022/04/24 01:23:45;;;;;;;;;;;;;;;;;;2218954;66;1250;-70
2022/04/24 01:26:18;;;;;;;;;;;;;;;;;;2220998;59;1104;-70
2022/04/24 01:28:51;;;;;;;;;;;;;;;;;;2220963;58;1314;-70
2022/04/24 01:31:24;;;;;;;;;;;;;;;;;;2221042;66;1258;-70
2022/04/24 01:33:57;;;;;;;;;;;;;;;;;;2220359;59;1218;-69
2022/04/24 01:36:33;;;;;;;;;;;;;;;;;;2218014;58;1936;-69
2022/04/24 01:39:07;;;;;;;;;;;;;;;;;;2219337;66;1044;-70
2022/04/24 01:41:40;;;;;;;;;;;;;;;;;;2218650;58;2126;-70
2022/04/24 01:44:14;;;;;;;;;;;;;;;;;;2215697;66;1131;-70
2022/04/24 01:46:47;;;;;;;;;;;;;;;;;;2219945;66;1222;-70
2022/04/24 01:49:20;;;;;;;;;;;;;;;;;;2219244;66;1333;-69
2022/04/24 01:51:56;;;;;;;;;;;;;;;;;;2220751;66;1225;-70
2022/04/24 01:54:29;;;;;;;;;;;;;;;;;;2220086;58;1645;-70
2022/04/24 01:57:02;;;;;;;;;;;;;;;;;;2218652;58;1983;-69
2022/04/24 01:59:35;;;;;;;;;;;;;;;;;;2219552;66;1288;-68
2022/04/24 02:02:08;;;;;;;;;;;;;;;;;;2218748;58;1758;-68
2022/04/24 02:04:41;;;;;;;;;;;;;;;;;;2218660;66;1194;-68
2022/04/24 02:07:17;;;;;;;;;;;;;;;;;;2221041;66;1195;-68
2022/04/24 02:09:50;;;;;;;;;;;;;;;;;;2220961;66;1205;-67
2022/04/24 02:12:23;;;;;;;;;;;;;;;;;;2216260;59;1387;-67
2022/04/24 02:14:56;;;;;;;;;;;;;;;;;;2219196;66;1312;-67
2022/04/24 02:17:30;;;;;;;;;;;;;;;;;;2221104;59;1992;-67
2022/04/24 02:20:03;;;;;;;;;;;;;;;;;;2221313;58;1112;-66
2022/04/24 02:22:39;;;;;;;;;;;;;;;;;;2219549;58;1981;-67
2022/04/24 02:25:12;;;;;;;;;;;;;;;;;;2219714;66;1006;-66
2022/04/24 02:27:45;;;;;;;;;;;;;;;;;;2219296;66;1249;-66
2022/04/24 02:30:18;;;;;;;;;;;;;;;;;;2220025;58;1260;-67
2022/04/24 02:32:52;;;;;;;;;;;;;;;;;;2220828;66;1255;-67
2022/04/24 02:35:25;;;;;;;;;;;;;;;;;;2219828;58;1994;-67
2022/04/24 02:38:01;;;;;;;;;;;;;;;;;;2219128;58;1948;-67
2022/04/24 02:40:34;;;;;;;;;;;;;;;;;;2219364;59;1201;-67
2022/04/24 02:43:08;;;;;;;;;;;;;;;;;;2218935;58;1605;-67
2022/04/24 02:45:41;;;;;;;;;;;;;;;;;;2219384;66;1356;-67
2022/04/24 02:48:14;;;;;;;;;;;;;;;;;;2220844;59;1210;-67
2022/04/24 02:50:47;;;;;;;;;;;;;;;;;;2221412;66;1274;-67
2022/04/24 02:53:23;;;;;;;;;;;;;;;;;;2218608;66;2104;-66
2022/04/24 02:55:56;;;;;;;;;;;;;;;;;;2221578;66;1931;-67
2022/04/24 02:58:30;;;;;;;;;;;;;;;;;;2221746;59;1128;-67
2022/04/24 03:01:03;;;;;;;;;;;;;;;;;;2221259;58;1637;-67
2022/04/24 03:03:37;;;;;;;;;;;;;;;;;;2219651;66;1182;-67
2022/04/24 03:09:21;;;;;;;;;;;;;;;;;;2214949;58;2283;-67
2022/04/24 03:11:54;;;;;;;;;;;;;;;;;;2218710;58;1237;-67
2022/04/24 03:14:27;;;;;;;;;;;;;;;;;;2217573;58;1760;-67
2022/04/24 03:17:01;;;;;;;;;;;;;;;;;;2219300;59;1933;-67
2022/04/24 03:19:34;;;;;;;;;;;;;;;;;;2220223;59;1291;-68
2022/04/24 03:22:07;;;;;;;;;;;;;;;;;;2215382;59;1682;-68
2022/04/24 03:24:43;;;;;;;;;;;;;;;;;;2221030;66;1179;-68
2022/04/24 03:27:16;;;;;;;;;;;;;;;;;;2220621;66;1094;-68
2022/04/24 03:29:49;;;;;;;;;;;;;;;;;;2220581;59;1371;-67
2022/04/24 03:32:23;;;;;;;;;;;;;;;;;;2219178;58;1455;-69
2022/04/24 03:34:56;;;;;;;;;;;;;;;;;;2219294;59;1273;-68
2022/04/24 03:37:29;;;;;;;;;;;;;;;;;;2219329;66;1943;-68
2022/04/24 03:40:05;;;;;;;;;;;;;;;;;;2218169;59;2085;-67
2022/04/24 03:42:39;;;;;;;;;;;;;;;;;;2219519;58;1741;-67
2022/04/24 03:45:12;;;;;;;;;;;;;;;;;;2219597;66;1106;-68
2022/04/24 03:47:47;;;;;;;;;;;;;;;;;;2220374;58;1305;-67
2022/04/24 03:50:20;;;;;;;;;;;;;;;;;;2220019;66;1061;-68
2022/04/24 03:52:53;;;;;;;;;;;;;;;;;;2220569;66;1187;-67
2022/04/24 03:55:29;;;;;;;;;;;;;;;;;;2221729;66;1205;-67
2022/04/24 03:58:02;;;;;;;;;;;;;;;;;;2221335;66;1937;-68
2022/04/24 04:00:36;;;;;;;;;;;;;;;;;;2221004;58;1612;-67
2022/04/24 04:03:09;;;;;;;;;;;;;;;;;;2219566;58;1681;-68
2022/04/24 04:05:42;;;;;;;;;;;;;;;;;;2218871;66;1191;-68
2022/04/24 04:08:15;;;;;;;;;;;;;;;;;;2219121;59;1242;-68
2022/04/24 04:10:51;;;;;;;;;;;;;;;;;;2221610;66;1185;-70
2022/04/24 04:13:24;;;;;;;;;;;;;;;;;;2219455;59;1262;-68
2022/04/24 04:15:57;;;;;;;;;;;;;;;;;;2219579;59;1980;-68
2022/04/24 04:18:30;;;;;;;;;;;;;;;;;;2221516;59;1215;-68
2022/04/24 04:21:03;;;;;;;;;;;;;;;;;;2217097;58;1868;-68
2022/04/24 04:23:36;;;;;;;;;;;;;;;;;;2219303;66;1225;-67
2022/04/24 04:26:13;;;;;;;;;;;;;;;;;;2220823;59;1086;-68
2022/04/24 04:28:46;;;;;;;;;;;;;;;;;;2221385;59;1155;-68
2022/04/24 04:31:19;;;;;;;;;;;;;;;;;;2215953;66;1301;-67
2022/04/24 04:33:52;;;;;;;;;;;;;;;;;;2219423;66;1136;-68
2022/04/24 04:36:26;;;;;;;;;;;;;;;;;;2221494;66;1923;-68
2022/04/24 04:38:59;;;;;;;;;;;;;;;;;;2221293;58;2124;-68
2022/04/24 04:41:35;;;;;;;;;;;;;;;;;;2219181;58;1737;-68
2022/04/24 04:44:08;;;;;;;;;;;;;;;;;;2219117;59;2408;-68
2022/04/24 04:46:41;;;;;;;;;;;;;;;;;;2219462;59;2027;-67
2022/04/24 04:49:15;;;;;;;;;;;;;;;;;;2219128;58;1610;-68
2022/04/24 04:51:48;;;;;;;;;;;;;;;;;;2219797;66;1166;-68
2022/04/24 04:54:21;;;;;;;;;;;;;;;;;;2219255;59;1278;-68
2022/04/24 04:56:57;;;;;;;;;;;;;;;;;;2219364;66;1994;-68
2022/04/24 04:59:30;;;;;;;;;;;;;;;;;;2220226;59;1112;-68
2022/04/24 05:02:03;;;;;;;;;;;;;;;;;;2219591;58;2135;-68
2022/04/24 05:04:36;;;;;;;;;;;;;;;;;;2218767;66;1093;-68
2022/04/24 05:07:09;;;;;;;;;;;;;;;;;;2219380;66;1135;-68
2022/04/24 05:09:42;;;;;;;;;;;;;;;;;;2219340;66;1179;-69
2022/04/24 05:12:18;;;;;;;;;;;;;;;;;;2218813;58;1570;-68
2022/04/24 05:14:51;;;;;;;;;;;;;;;;;;2218764;59;1211;-67
2022/04/24 05:17:24;;;;;;;;;;;;;;;;;;2217965;58;2437;-68
2022/04/24 05:19:58;;;;;;;;;;;;;;;;;;2219525;66;1264;-68
2022/04/24 05:22:31;;;;;;;;;;;;;;;;;;2218097;58;2080;-68
2022/04/24 05:25:04;;;;;;;;;;;;;;;;;;2220180;66;1262;-69
2022/04/24 05:27:40;;;;;;;;;;;;;;;;;;2220797;59;1175;-68
2022/04/24 05:30:14;;;;;;;;;;;;;;;;;;2219233;66;1431;-68
2022/04/24 05:32:50;;;;;;;;;;;;;;;;;;2219408;66;1201;-68
2022/04/24 05:35:23;;;;;;;;;;;;;;;;;;2219181;66;1132;-67
2022/04/24 05:37:56;;;;;;;;;;;;;;;;;;2217230;66;1915;-68
2022/04/24 05:40:29;;;;;;;;;;;;;;;;;;2216368;58;2506;-68
2022/04/24 05:43:05;;;;;;;;;;;;;;;;;;2219025;58;1604;-69
2022/04/24 05:45:38;;;;;;;;;;;;;;;;;;2219754;59;1071;-68
2022/04/24 05:48:12;;;;;;;;;;;;;;;;;;2218200;59;1167;-68
2022/04/24 05:50:45;;;;;;;;;;;;;;;;;;2219702;59;1190;-68
2022/04/24 05:53:18;;;;;;;;;;;;;;;;;;2219234;66;1265;-68
2022/04/24 05:55:51;;;;;;;;;;;;;;;;;;2221171;66;1222;-69
2022/04/24 05:58:27;;;;;;;;;;;;;;;;;;2221764;66;1982;-68
2022/04/24 06:01:00;;;;;;;;;;;;;;;;;;2220809;58;1830;-68
2022/04/24 06:03:33;;;;;;;;;;;;;;;;;;2218988;66;1178;-68
2022/04/24 06:06:06;;;;;;;;;;;;;;;;;;2221105;66;1217;-68
2022/04/24 06:08:40;;;;;;;;;;;;;;;;;;2220758;58;1197;-68
2022/04/24 06:11:13;;;;;;;;;;;;;;;;;;2218767;58;1611;-69
2022/04/24 06:13:49;;;;;;;;;;;;;;;;;;2219929;58;1304;-69
2022/04/24 06:16:22;;;;;;;;;;;;;;;;;;2222154;58;1269;-69
2022/04/24 06:18:55;;;;;;;;;;;;;;;;;;2221481;66;1981;-68
2022/04/24 06:21:28;;;;;;;;;;;;;;;;;;2218867;58;1801;-68
2022/04/24 06:24:01;;;;;;;;;;;;;;;;;;2219309;66;1225;-69
2022/04/24 06:26:34;;;;;;;;;;;;;;;;;;2219851;66;1213;-68
2022/04/24 06:29:10;;;;;;;;;;;;;;;;;;2220864;59;1385;-68
2022/04/24 06:31:43;;;;;;;;;;;;;;;;;;2222080;66;1243;-69
2022/04/24 06:34:17;;;;;;;;;;;;;;;;;;2220132;66;1258;-69
2022/04/24 06:36:50;;;;;;;;;;;;;;;;;;2221016;59;1927;-68
2022/04/24 06:39:23;;;;;;;;;;;;;;;;;;2218190;59;2041;-70
2022/04/24 06:41:56;;;;;;;;;;;;;;;;;;2218949;58;1678;-69
2022/04/24 06:44:32;;;;;;;;;;;;;;;;;;2220477;66;1289;-68
2022/04/24 06:47:05;;;;;;;;;;;;;;;;;;2219518;58;1726;-68
2022/04/24 06:49:38;;;;;;;;;;;;;;;;;;2219355;66;1143;-69
2022/04/24 06:52:11;;;;;;;;;;;;;;;;;;2220457;66;1301;-69
2022/04/24 06:54:45;;;;;;;;;;;;;;;;;;2219172;58;2378;-69
2022/04/24 06:57:18;;;;;;;;;;;;;;;;;;2220159;59;1984;-69
2022/04/24 06:59:54;;;;;;;;;;;;;;;;;;2220308;66;1135;-69
2022/04/24 07:02:27;;;;;;;;;;;;;;;;;;2219176;58;3706;-72
2022/04/24 07:05:01;;;;;;;;;;;;;;;;;;2216448;58;1139;-72
2022/04/24 07:07:37;;;;;;;;;;;;;;;;;;2217753;66;1193;-71
2022/04/24 07:10:10;;;;;;;;;;;;;;;;;;2217530;59;1153;-71
2022/04/24 07:12:50;;;;;;;;;;;;;;;;;;2217684;58;1379;-71
2022/04/24 07:15:26;;;;;;;;;;;;;;;;;;2217698;58;1318;-71
2022/04/24 07:18:00;;;;;;;;;;;;;;;;;;2217741;58;1928;-72
2022/04/24 07:20:34;;;;;;;;;;;;;;;;;;2217647;66;1349;-72
2022/04/24 07:23:07;;;;;;;;;;;;;;;;;;2217000;58;1699;-72
2022/04/24 07:25:43;;;;;;;;;;;;;;;;;;2218101;58;2158;-72
2022/04/24 07:28:18;;;;;;;;;;;;;;;;;;2217693;66;1523;-72
2022/04/24 07:30:54;;;;;;;;;;;;;;;;;;2217548;58;1385;-71
2022/04/24 07:33:30;;;;;;;;;;;;;;;;;;2217941;66;1188;-72
2022/04/24 07:36:04;;;;;;;;;;;;;;;;;;2217333;66;1176;-72
2022/04/24 07:38:37;;;;;;;;;;;;;;;;;;2218260;59;2000;-72
2022/04/24 07:41:11;;;;;;;;;;;;;;;;;;2217736;58;2130;-72
2022/04/24 07:43:48;;;;;;;;;;;;;;;;;;2217045;58;1101;-71
2022/04/24 07:46:24;;;;;;;;;;;;;;;;;;2218025;66;1124;-72
2022/04/24 07:48:57;;;;;;;;;;;;;;;;;;2215964;58;1314;-72
2022/04/24 07:51:30;;;;;;;;;;;;;;;;;;2217854;66;1254;-71
2022/04/24 07:54:04;;;;;;;;;;;;;;;;;;2216356;58;2543;-71
2022/04/24 07:56:39;;;;;;;;;;;;;;;;;;2216775;59;1140;-72
2022/04/24 07:59:12;;;;;;;;;;;;;;;;;;2215942;58;2620;-71
2022/04/24 08:01:51;;;;;;;;;;;;;;;;;;2215000;58;1921;-72
2022/04/24 08:04:24;;;;;;;;;;;;;;;;;;2216106;58;1871;-72
2022/04/24 08:06:57;;;;;;;;;;;;;;;;;;2216931;59;1819;-72
2022/04/24 08:09:31;;;;;;;;;;;;;;;;;;2216807;58;1748;-72
2022/04/24 08:12:06;;;;;;;;;;;;;;;;;;2217120;58;1282;-72
2022/04/24 08:14:39;;;;;;;;;;;;;;;;;;2217566;58;1693;-72
2022/04/24 08:17:15;;;;;;;;;;;;;;;;;;2217665;66;1103;-72
2022/04/24 08:19:51;;;;;;;;;;;;;;;;;;2217070;66;1275;-71
2022/04/24 08:22:25;;;;;;;;;;;;;;;;;;2216341;58;1787;-71
2022/04/24 08:24:58;;;;;;;;;;;;;;;;;;2217363;66;1139;-72
2022/04/24 08:27:31;;;;;;;;;;;;;;;;;;2214178;58;1924;-72
2022/04/24 08:30:05;;;;;;;;;;;;;;;;;;2215946;58;1220;-72
2022/04/24 08:32:42;;;;;;;;;;;;;;;;;;2216402;66;1234;-72
2022/04/24 08:35:15;;;;;;;;;;;;;;;;;;2216064;59;1854;-72
2022/04/24 08:37:49;;;;;;;;;;;;;;;;;;2216619;59;2448;-72
2022/04/24 08:40:24;;;;;;;;;;;;;;;;;;2215611;58;2321;-71
2022/04/24 08:42:57;;;;;;;;;;;;;;;;;;2214798;58;1880;-72
2022/04/24 08:45:31;;;;;;;;;;;;;;;;;;2217089;66;1096;-71
2022/04/24 08:48:09;;;;;;;;;;;;;;;;;;2216417;59;1889;-72
2022/04/24 08:50:42;;;;;;;;;;;;;;;;;;2216238;66;1274;-71
2022/04/24 08:53:20;;;;;;;;;;;;;;;;;;2217113;66;1258;-71
2022/04/24 08:55:55;;;;;;;;;;;;;;;;;;2217174;58;1689;-72
2022/04/24 08:58:28;;;;;;;;;;;;;;;;;;2215865;58;2379;-72
2022/04/24 09:01:04;;;;;;;;;;;;;;;;;;2215570;58;2423;-72
2022/04/24 09:03:40;;;;;;;;;;;;;;;;;;2216181;66;1037;-72
2022/04/24 09:06:21;;;;;;;;;;;;;;;;;;2217488;66;1097;-72
2022/04/24 09:08:55;;;;;;;;;;;;;;;;;;2216154;59;1781;-72
2022/04/24 09:11:28;;;;;;;;;;;;;;;;;;2217891;58;1409;-71
2022/04/24 09:14:24;;;;;;;;;;;;;;;;;;2216644;66;1155;-71
2022/04/24 09:16:57;;;;;;;;;;;;;;;;;;2217445;59;1292;-71
2022/04/24 09:19:35;;;;;;;;;;;;;;;;;;2216823;66;2875;-71
2022/04/24 09:22:10;;;;;;;;;;;;;;;;;;2214382;58;1974;-71
2022/04/24 09:24:44;;;;;;;;;;;;;;;;;;2217246;66;1152;-71
2022/04/24 09:27:25;;;;;;;;;;;;;;;;;;2217354;66;1199;-71
2022/04/24 09:29:59;;;;;;;;;;;;;;;;;;2216531;58;1285;-71
2022/04/24 09:32:33;;;;;;;;;;;;;;;;;;2213601;66;1258;-72
2022/04/24 09:35:10;;;;;;;;;;;;;;;;;;2216647;59;1097;-71
2022/04/24 09:37:43;;;;;;;;;;;;;;;;;;2216694;66;2497;-71
2022/04/24 09:40:16;;;;;;;;;;;;;;;;;;2215553;58;2684;-71
2022/04/24 09:42:59;;;;;;;;;;;;;;;;;;2214821;58;1857;-71
2022/04/24 09:45:32;;;;;;;;;;;;;;;;;;2213517;58;1551;-71
2022/04/24 09:48:13;;;;;;;;;;;;;;;;;;2216460;58;1785;-70
2022/04/24 09:50:49;;;;;;;;;;;;;;;;;;2215988;59;1373;-71
2022/04/24 09:53:23;;;;;;;;;;;;;;;;;;2218445;58;1566;-72
2022/04/24 09:55:57;;;;;;;;;;;;;;;;;;2217067;59;1208;-72
2022/04/24 09:58:31;;;;;;;;;;;;;;;;;;2216398;59;1925;-73
2022/04/24 10:01:06;;;;;;;;;;;;;;;;;;2215741;58;2502;-72
2022/04/24 10:03:39;;;;;;;;;;;;;;;;;;2217077;59;1277;-72
2022/04/24 10:06:16;;;;;;;;;;;;;;;;;;2216652;59;1221;-72
2022/04/24 10:08:49;;;;;;;;;;;;;;;;;;2215799;58;1268;-72
2022/04/24 10:11:23;;;;;;;;;;;;;;;;;;2217147;58;1531;-73
2022/04/24 10:14:00;;;;;;;;;;;;;;;;;;2216901;58;1387;-72
2022/04/24 10:16:48;;;;;;;;;;;;;;;;;;2218768;58;1271;-72
2022/04/24 10:19:29;;;;;;;;;;;;;;;;;;2215263;58;3016;-73
2022/04/24 10:22:09;;;;;;;;;;;;;;;;;;2217621;58;1818;-73
2022/04/24 10:24:44;;;;;;;;;;;;;;;;;;2216507;58;1180;-73
2022/04/24 10:27:17;;;;;;;;;;;;;;;;;;2216878;58;2380;-73
2022/04/24 10:29:51;;;;;;;;;;;;;;;;;;2216118;58;1699;-73
2022/04/24 10:32:29;;;;;;;;;;;;;;;;;;2215564;58;1826;-72
2022/04/24 10:35:03;;;;;;;;;;;;;;;;;;2216452;58;1435;-73
2022/04/24 10:37:38;;;;;;;;;;;;;;;;;;2216852;58;1376;-72
2022/04/24 10:40:15;;;;;;;;;;;;;;;;;;2215216;59;2439;-73
2022/04/24 10:42:48;;;;;;;;;;;;;;;;;;2214868;58;3542;-73
2022/04/24 10:45:21;;;;;;;;;;;;;;;;;;2217846;59;1165;-72
2022/04/24 10:47:58;;;;;;;;;;;;;;;;;;2216651;58;1383;-72
2022/04/24 10:50:31;;;;;;;;;;;;;;;;;;2217513;58;1384;-73
2022/04/24 10:53:12;;;;;;;;;;;;;;;;;;2217326;58;1431;-72
2022/04/24 10:55:46;;;;;;;;;;;;;;;;;;2217747;58;1473;-72
2022/04/24 10:58:27;;;;;;;;;;;;;;;;;;2217740;58;1988;-72
2022/04/24 11:01:10;;;;;;;;;;;;;;;;;;2217922;58;1504;-73
2022/04/24 11:03:44;;;;;;;;;;;;;;;;;;2218439;58;1253;-73
2022/04/24 11:06:20;;;;;;;;;;;;;;;;;;2217688;58;1609;-72
2022/04/24 11:08:56;;;;;;;;;;;;;;;;;;2215176;58;1279;-72
2022/04/24 11:11:31;;;;;;;;;;;;;;;;;;2218634;58;1229;-73
2022/04/24 11:14:05;;;;;;;;;;;;;;;;;;2217699;58;1428;-72
2022/04/24 11:16:38;;;;;;;;;;;;;;;;;;2217673;58;1835;-73
2022/04/24 11:19:11;;;;;;;;;;;;;;;;;;2217777;58;1935;-73
2022/04/24 11:21:44;;;;;;;;;;;;;;;;;;2218090;58;1468;-73
2022/04/24 11:24:22;;;;;;;;;;;;;;;;;;2212479;59;1426;-72
2022/04/24 11:26:56;;;;;;;;;;;;;;;;;;2217348;58;1348;-72
2022/04/24 11:29:30;;;;;;;;;;;;;;;;;;2217017;58;1239;-72
2022/04/24 11:32:04;;;;;;;;;;;;;;;;;;2218307;58;1233;-73
2022/04/24 11:34:38;;;;;;;;;;;;;;;;;;2217445;59;1211;-72
2022/04/24 11:37:11;;;;;;;;;;;;;;;;;;2217592;58;1325;-73
2022/04/24 11:39:47;;;;;;;;;;;;;;;;;;2213965;59;2662;-73
2022/04/24 11:42:20;;;;;;;;;;;;;;;;;;2216124;58;2424;-73
2022/04/24 11:50:32;;;;;;;;;;;;;;;;;;2217510;58;1126;-73
2022/04/24 11:53:05;;;;;;;;;;;;;;;;;;2216902;58;1241;-72
2022/04/24 11:58:34;;;;;;;;;;;;;;;;;;2217944;58;1983;-73
2022/04/24 12:01:09;;;;;;;;;;;;;;;;;;2217255;58;2009;-72
2022/04/24 12:03:44;;;;;;;;;;;;;;;;;;2216847;59;1160;-73
2022/04/24 12:06:17;;;;;;;;;;;;;;;;;;2217495;58;1235;-72
2022/04/24 12:08:52;;;;;;;;;;;;;;;;;;2217656;58;1183;-72
2022/04/24 12:11:29;;;;;;;;;;;;;;;;;;2216896;58;1274;-74
2022/04/24 12:14:02;;;;;;;;;;;;;;;;;;2217712;59;1126;-72
2022/04/24 12:16:36;;;;;;;;;;;;;;;;;;2217842;58;1387;-71
2022/04/24 12:19:12;;;;;;;;;;;;;;;;;;2218005;58;1937;-72
2022/04/24 12:21:49;;;;;;;;;;;;;;;;;;2216897;58;1816;-73
2022/04/24 12:24:22;;;;;;;;;;;;;;;;;;2217476;59;1343;-72
2022/04/24 12:26:58;;;;;;;;;;;;;;;;;;2216999;59;1173;-72
2022/04/24 12:29:39;;;;;;;;;;;;;;;;;;2218133;58;1195;-73
2022/04/24 12:32:14;;;;;;;;;;;;;;;;;;2216886;59;1238;-73
2022/04/24 12:34:49;;;;;;;;;;;;;;;;;;2217461;58;1391;-73
2022/04/24 12:37:29;;;;;;;;;;;;;;;;;;2217713;58;1274;-74
2022/04/24 12:40:04;;;;;;;;;;;;;;;;;;2214213;59;1948;-73
2022/04/24 12:42:40;;;;;;;;;;;;;;;;;;2215101;58;2852;-72
2022/04/24 12:45:13;;;;;;;;;;;;;;;;;;2215690;59;1236;-71
2022/04/24 12:47:46;;;;;;;;;;;;;;;;;;2217767;58;1368;-73
2022/04/24 12:50:19;;;;;;;;;;;;;;;;;;2217409;59;1609;-73
2022/04/24 12:52:53;;;;;;;;;;;;;;;;;;2218112;59;1251;-72
2022/04/24 12:55:27;;;;;;;;;;;;;;;;;;2215823;59;2063;-73
2022/04/24 12:58:03;;;;;;;;;;;;;;;;;;2217054;59;1311;-72
2022/04/24 13:00:36;;;;;;;;;;;;;;;;;;2215797;58;1937;-73
2022/04/24 13:03:12;;;;;;;;;;;;;;;;;;2220164;53;3520;-71
2022/04/24 13:05:45;;;;;;;;;;;;;;;;;;2220154;58;1214;-72
2022/04/24 13:08:18;;;;;;;;;;;;;;;;;;2222657;58;1195;-73
2022/04/24 13:10:51;;;;;;;;;;;;;;;;;;2221949;58;1278;-72
2022/04/24 13:13:28;;;;;;;;;;;;;;;;;;2221482;58;1392;-72
2022/04/24 13:18:50;;;;;;;;;;;;;;;;;;2220302;58;1210;-72
2022/04/24 13:21:23;;;;;;;;;;;;;;;;;;2222059;58;1923;-71
2022/04/24 13:23:57;;;;;;;;;;;;;;;;;;2221529;58;1957;-72
2022/04/24 13:26:30;;;;;;;;;;;;;;;;;;2221562;58;1628;-72
2022/04/24 13:29:06;;;;;;;;;;;;;;;;;;2220963;58;1674;-72
2022/04/24 13:31:39;;;;;;;;;;;;;;;;;;2217695;58;1255;-72
2022/04/24 13:34:12;;;;;;;;;;;;;;;;;;2221860;59;1115;-72
2022/04/24 13:36:45;;;;;;;;;;;;;;;;;;2220539;58;1458;-71
2022/04/24 13:39:15;;;;;;;;;;;;;;;;;;2219770;58;1983;-72
2022/04/24 13:41:48;;;;;;;;;;;;;;;;;;2220219;58;2763;-73
2022/04/24 13:44:24;;;;;;;;;;;;;;;;;;2220201;58;2646;-72
2022/04/24 13:46:58;;;;;;;;;;;;;;;;;;2221255;58;1239;-73
2022/04/24 13:49:32;;;;;;;;;;;;;;;;;;2220419;58;1625;-72
2022/04/24 13:52:05;;;;;;;;;;;;;;;;;;2220941;58;1332;-72
2022/04/24 13:54:39;;;;;;;;;;;;;;;;;;2221466;58;1152;-73
2022/04/24 13:57:12;;;;;;;;;;;;;;;;;;2221092;58;1389;-71
2022/04/24 13:59:48;;;;;;;;;;;;;;;;;;2221939;58;1999;-72
2022/04/24 14:02:21;;;;;;;;;;;;;;;;;;2220652;58;1741;-72
2022/04/24 14:04:55;;;;;;;;;;;;;;;;;;2221763;58;1194;-72
2022/04/24 14:07:28;;;;;;;;;;;;;;;;;;2219910;58;1169;-72
2022/04/24 14:10:02;;;;;;;;;;;;;;;;;;2219860;58;1464;-71
2022/04/24 14:12:35;;;;;;;;;;;;;;;;;;2220556;58;1416;-72
2022/04/24 14:15:12;;;;;;;;;;;;;;;;;;2221791;58;1315;-71
2022/04/24 14:17:45;;;;;;;;;;;;;;;;;;2221175;58;1820;-72
2022/04/24 14:20:20;;;;;;;;;;;;;;;;;;2222835;58;1994;-72
2022/04/24 14:22:53;;;;;;;;;;;;;;;;;;2221704;58;1599;-71
2022/04/24 14:25:26;;;;;;;;;;;;;;;;;;2222760;58;1237;-72
2022/04/24 14:27:59;;;;;;;;;;;;;;;;;;2216242;58;1598;-72
2022/04/24 14:30:35;;;;;;;;;;;;;;;;;;2221813;58;1203;-72
2022/04/24 14:33:08;;;;;;;;;;;;;;;;;;2224234;59;1198;-71
2022/04/24 14:35:41;;;;;;;;;;;;;;;;;;2220676;58;1758;-71
2022/04/24 14:38:15;;;;;;;;;;;;;;;;;;2223264;58;1379;-72
2022/04/24 14:40:48;;;;;;;;;;;;;;;;;;2221250;58;1933;-72
2022/04/24 14:43:21;;;;;;;;;;;;;;;;;;2221216;58;2450;-71
2022/04/24 14:57:12;;;;;;;;;;;;;;;;;;2222033;58;1245;-70
2022/04/24 14:59:45;;;;;;;;;;;;;;;;;;2222949;58;2035;-70
2022/04/24 15:02:22;;;;;;;;;;;;;;;;;;2221255;58;1680;-69
2022/04/24 15:04:55;;;;;;;;;;;;;;;;;;2222506;58;1311;-70
2022/04/24 15:07:28;;;;;;;;;;;;;;;;;;2221402;58;1543;-71
2022/04/24 15:10:01;;;;;;;;;;;;;;;;;;2222174;58;1589;-71
2022/04/24 15:12:34;;;;;;;;;;;;;;;;;;2222420;58;1405;-71
2022/04/24 15:15:08;;;;;;;;;;;;;;;;;;2222739;58;1311;-70
2022/04/24 15:17:45;;;;;;;;;;;;;;;;;;2218616;58;1267;-71
2022/04/24 15:20:19;;;;;;;;;;;;;;;;;;2222763;58;1924;-69
2022/04/24 15:22:53;;;;;;;;;;;;;;;;;;2222281;58;1625;-70
2022/04/24 15:25:27;;;;;;;;;;;;;;;;;;2222502;58;1219;-70
2022/04/24 15:28:00;;;;;;;;;;;;;;;;;;2220668;58;1401;-70
2022/04/24 15:30:34;;;;;;;;;;;;;;;;;;2222432;58;1252;-70
2022/04/24 15:33:10;;;;;;;;;;;;;;;;;;2221212;58;1323;-70
2022/04/24 15:35:43;;;;;;;;;;;;;;;;;;2219553;58;1108;-70
2022/04/24 15:38:16;;;;;;;;;;;;;;;;;;2220676;58;1239;-69
2022/04/24 15:40:49;;;;;;;;;;;;;;;;;;2221001;58;1937;-70
2022/04/24 15:43:23;;;;;;;;;;;;;;;;;;2222275;58;1757;-70
2022/04/24 15:45:56;;;;;;;;;;;;;;;;;;2220300;58;2594;-70
2022/04/24 15:48:31;;;;;;;;;;;;;;;;;;2221120;58;1875;-69
2022/04/24 15:51:06;;;;;;;;;;;;;;;;;;2220143;58;1609;-71
2022/04/24 15:53:40;;;;;;;;;;;;;;;;;;2221529;58;1283;-69
2022/04/24 15:56:13;;;;;;;;;;;;;;;;;;2220777;58;2045;-70
2022/04/24 15:58:46;;;;;;;;;;;;;;;;;;2221754;58;1301;-70
2022/04/24 16:01:19;;;;;;;;;;;;;;;;;;2220447;58;2907;-70
2022/04/24 16:03:56;;;;;;;;;;;;;;;;;;2219428;58;2614;-70
2022/04/24 16:06:29;;;;;;;;;;;;;;;;;;2221118;58;1394;-70
2022/04/24 16:09:02;;;;;;;;;;;;;;;;;;2220550;58;1188;-70
2022/04/24 16:11:36;;;;;;;;;;;;;;;;;;2220238;58;1364;-70
2022/04/24 16:14:09;;;;;;;;;;;;;;;;;;2221740;58;1180;-69
2022/04/24 16:16:42;;;;;;;;;;;;;;;;;;2219001;58;1632;-69
2022/04/24 16:19:18;;;;;;;;;;;;;;;;;;2220275;58;1715;-70
2022/04/24 16:21:51;;;;;;;;;;;;;;;;;;2218379;58;1996;-69
2022/04/24 16:24:24;;;;;;;;;;;;;;;;;;2221834;58;1140;-70
2022/04/24 16:26:57;;;;;;;;;;;;;;;;;;2222172;58;1379;-69
2022/04/24 16:32:19;;;;;;;;;;;;;;;;;;2222540;58;1265;-69
2022/04/24 16:34:55;;;;;;;;;;;;;;;;;;2220130;58;1140;-69
2022/04/24 16:37:29;;;;;;;;;;;;;;;;;;2219917;58;1564;-69
2022/04/24 16:40:03;;;;;;;;;;;;;;;;;;2221748;58;1980;-69
2022/04/24 16:42:36;;;;;;;;;;;;;;;;;;2219455;58;1868;-69
2022/04/24 16:45:10;;;;;;;;;;;;;;;;;;2222273;58;2603;-69
2022/04/24 16:47:43;;;;;;;;;;;;;;;;;;2220108;58;2744;-69
2022/04/24 16:58:48;;;;;;;;;;;;;;;;;;2221382;59;1295;-69
2022/04/24 17:01:21;;;;;;;;;;;;;;;;;;2219246;58;2507;-70
2022/04/24 17:03:55;;;;;;;;;;;;;;;;;;2218839;58;2352;-68
2022/04/24 17:06:30;;;;;;;;;;;;;;;;;;2221285;58;1092;-68
2022/04/24 17:09:04;;;;;;;;;;;;;;;;;;2219784;58;1255;-69
2022/04/24 17:11:37;;;;;;;;;;;;;;;;;;2219836;58;1667;-68
2022/04/24 17:14:10;;;;;;;;;;;;;;;;;;2220707;58;1623;-68
2022/04/24 17:16:44;;;;;;;;;;;;;;;;;;2221495;58;1288;-68
2022/04/24 17:19:17;;;;;;;;;;;;;;;;;;2219602;58;1946;-67
2022/04/24 17:21:53;;;;;;;;;;;;;;;;;;2217779;58;1939;-68
2022/04/24 17:24:26;;;;;;;;;;;;;;;;;;2220482;58;1367;-68
2022/04/24 17:26:59;;;;;;;;;;;;;;;;;;2217325;59;1200;-68
2022/04/24 17:29:33;;;;;;;;;;;;;;;;;;2216498;59;2013;-67
2022/04/24 17:32:08;;;;;;;;;;;;;;;;;;2220849;58;1588;-68
2022/04/24 17:34:41;;;;;;;;;;;;;;;;;;2220920;58;1158;-68
2022/04/24 17:37:17;;;;;;;;;;;;;;;;;;2220720;58;1301;-67
2022/04/24 17:39:50;;;;;;;;;;;;;;;;;;2220822;58;2091;-68
2022/04/24 17:42:25;;;;;;;;;;;;;;;;;;2217709;58;2305;-68
2022/04/24 17:44:58;;;;;;;;;;;;;;;;;;2217963;59;2099;-67
2022/04/24 17:47:31;;;;;;;;;;;;;;;;;;2219152;58;2575;-68
2022/04/24 17:50:05;;;;;;;;;;;;;;;;;;2219841;58;2642;-68
2022/04/24 17:52:42;;;;;;;;;;;;;;;;;;2219795;58;1761;-67
2022/04/24 17:55:15;;;;;;;;;;;;;;;;;;2217152;58;1261;-67
2022/04/24 17:57:48;;;;;;;;;;;;;;;;;;2221091;58;1232;-67
2022/04/24 18:00:22;;;;;;;;;;;;;;;;;;2221984;58;2234;-68
2022/04/24 18:02:55;;;;;;;;;;;;;;;;;;2219200;58;2335;-67
2022/04/24 18:05:28;;;;;;;;;;;;;;;;;;2220551;58;2319;-67
2022/04/24 18:08:06;;;;;;;;;;;;;;;;;;2221592;58;1178;-68
2022/04/24 18:10:39;;;;;;;;;;;;;;;;;;2222756;58;1367;-67
2022/04/24 18:13:12;;;;;;;;;;;;;;;;;;2222217;58;1291;-67
2022/04/24 18:15:46;;;;;;;;;;;;;;;;;;2221025;58;1278;-68
2022/04/24 18:18:19;;;;;;;;;;;;;;;;;;2220072;58;1797;-68
2022/04/24 18:20:52;;;;;;;;;;;;;;;;;;2221505;58;1992;-67
2022/04/24 18:23:28;;;;;;;;;;;;;;;;;;2220978;58;1827;-67
2022/04/24 18:26:02;;;;;;;;;;;;;;;;;;2221542;58;1690;-68
2022/04/24 18:28:35;;;;;;;;;;;;;;;;;;2221723;58;1232;-67
2022/04/24 18:31:09;;;;;;;;;;;;;;;;;;2221390;58;1645;-67